createdAt,value
2018-06-05T00:00:50.325Z,19.90
2018-06-05T00:03:17.888Z,19.90
2018-06-05T00:05:46.264Z,19.80
2018-06-05T00:08:15.575Z,19.80
2018-06-05T00:10:43.907Z,19.70
2018-06-05T00:13:11.527Z,19.70
2018-06-05T00:15:39.106Z,19.70
2018-06-05T00:18:06.691Z,19.70
2018-06-05T00:20:34.281Z,19.70
2018-06-05T00:23:01.864Z,19.70
2018-06-05T00:25:29.428Z,19.60
2018-06-05T00:27:57.813Z,19.60
2018-06-05T00:30:26.133Z,19.50
2018-06-05T00:32:53.709Z,19.50
2018-06-05T00:35:21.302Z,19.50
2018-06-05T00:37:49.656Z,19.60
2018-06-05T00:40:17.226Z,19.60
2018-06-05T00:42:44.836Z,19.60
2018-06-05T00:45:12.397Z,19.70
2018-06-05T00:47:39.965Z,19.60
2018-06-05T00:50:09.439Z,19.60
2018-06-05T00:52:37.774Z,19.40
2018-06-05T00:55:05.341Z,19.40
2018-06-05T00:57:32.941Z,19.40
2018-06-05T01:00:01.278Z,19.30
2018-06-05T01:02:28.846Z,19.30
2018-06-05T01:04:56.454Z,19.30
2018-06-05T01:07:24.021Z,19.20
2018-06-05T01:09:51.584Z,19.20
2018-06-05T01:12:19.209Z,19.20
2018-06-05T01:14:47.547Z,19.20
2018-06-05T01:17:15.125Z,19.20
2018-06-05T01:19:42.738Z,19.20
2018-06-05T01:22:10.310Z,19.20
2018-06-05T01:24:37.878Z,19.20
2018-06-05T01:27:05.479Z,19.20
2018-06-05T01:29:33.040Z,19.10
2018-06-05T01:32:00.601Z,19.20
2018-06-05T01:34:28.228Z,19.10
2018-06-05T01:36:55.802Z,19.10
2018-06-05T01:39:23.377Z,19.00
2018-06-05T01:41:50.990Z,19.00
2018-06-05T01:44:19.331Z,18.80
2018-06-05T01:46:46.899Z,18.80
2018-06-05T01:49:14.504Z,18.80
2018-06-05T01:51:42.074Z,18.80
2018-06-05T01:54:09.635Z,18.70
2018-06-05T01:56:37.878Z,18.70
2018-06-05T01:59:06.234Z,18.70
2018-06-05T02:01:33.804Z,18.70
2018-06-05T02:04:01.409Z,18.70
2018-06-05T02:06:28.971Z,18.70
2018-06-05T02:08:56.545Z,18.80
2018-06-05T02:11:24.151Z,18.80
2018-06-05T02:13:51.741Z,18.80
2018-06-05T02:16:19.308Z,18.70
2018-06-05T02:18:46.929Z,18.70
2018-06-05T02:21:14.496Z,18.60
2018-06-05T02:23:42.067Z,18.60
2018-06-05T02:26:10.448Z,18.60
2018-06-05T02:28:38.392Z,18.50
2018-06-05T02:31:05.960Z,18.50
2018-06-05T02:33:33.552Z,18.50
2018-06-05T02:36:01.115Z,18.50
2018-06-05T02:38:28.749Z,18.50
2018-06-05T02:40:56.778Z,18.50
2018-06-05T02:43:24.352Z,18.40
2018-06-05T02:45:51.921Z,18.40
2018-06-05T02:48:19.511Z,18.40
2018-06-05T02:50:47.089Z,18.40
2018-06-05T02:53:14.659Z,18.30
2018-06-05T02:55:42.259Z,18.30
2018-06-05T02:58:09.859Z,18.30
2018-06-05T03:00:37.434Z,18.30
2018-06-05T03:03:06.330Z,18.20
2018-06-05T03:05:33.872Z,18.20
2018-06-05T03:08:01.434Z,18.20
2018-06-05T03:10:29.052Z,18.20
2018-06-05T03:12:56.622Z,18.20
2018-06-05T03:15:24.193Z,18.20
2018-06-05T03:17:51.794Z,18.20
2018-06-05T03:20:20.131Z,18.10
2018-06-05T03:22:47.713Z,18.10
2018-06-05T03:25:15.686Z,18.10
2018-06-05T03:27:43.243Z,18.10
2018-06-05T03:30:10.815Z,18.10
2018-06-05T03:32:38.442Z,18.10
2018-06-05T03:35:06.010Z,18.10
2018-06-05T03:37:33.594Z,18.10
2018-06-05T03:40:01.209Z,18.00
2018-06-05T03:42:28.781Z,18.10
2018-06-05T03:44:56.341Z,18.10
2018-06-05T03:47:24.337Z,18.00
2018-06-05T03:49:51.909Z,18.00
2018-06-05T03:52:19.484Z,17.90
2018-06-05T03:54:47.104Z,17.90
2018-06-05T03:57:14.720Z,17.90
2018-06-05T03:59:42.240Z,17.80
2018-06-05T04:02:09.840Z,17.80
2018-06-05T04:04:37.405Z,17.90
2018-06-05T04:07:04.976Z,17.90
2018-06-05T04:09:32.602Z,17.90
2018-06-05T04:12:00.173Z,17.90
2018-06-05T04:14:27.733Z,18.00
2018-06-05T04:16:55.328Z,18.00
2018-06-05T04:19:22.934Z,18.10
2018-06-05T04:21:50.529Z,18.10
2018-06-05T04:24:18.143Z,18.00
2018-06-05T04:26:45.723Z,18.00
2018-06-05T04:29:13.281Z,18.00
2018-06-05T04:31:40.997Z,18.00
2018-06-05T04:34:09.294Z,18.00
2018-06-05T04:36:37.301Z,18.00
2018-06-05T04:39:04.905Z,18.00
2018-06-05T04:41:32.478Z,18.00
2018-06-05T04:44:00.047Z,18.20
2018-06-05T04:46:27.673Z,18.20
2018-06-05T04:48:55.239Z,18.20
2018-06-05T04:51:22.803Z,18.30
2018-06-05T04:53:50.451Z,18.30
2018-06-05T04:56:18.779Z,18.20
2018-06-05T04:58:46.350Z,18.20
2018-06-05T05:01:13.965Z,18.30
2018-06-05T05:03:41.533Z,18.30
2018-06-05T05:06:09.104Z,18.20
2018-06-05T05:08:36.708Z,18.30
2018-06-05T05:11:04.275Z,18.30
2018-06-05T05:13:31.860Z,18.30
2018-06-05T05:16:00.226Z,18.40
2018-06-05T05:18:27.831Z,18.40
2018-06-05T05:20:55.416Z,18.50
2018-06-05T05:23:23.449Z,18.50
2018-06-05T05:25:51.015Z,18.60
2018-06-05T05:28:18.592Z,18.60
2018-06-05T05:30:46.217Z,18.60
2018-06-05T05:33:13.772Z,18.60
2018-06-05T05:35:41.341Z,18.70
2018-06-05T05:38:09.994Z,18.90
2018-06-05T05:40:37.563Z,18.90
2018-06-05T05:43:05.128Z,19.00
2018-06-05T05:45:32.752Z,19.00
2018-06-05T05:48:00.322Z,19.20
2018-06-05T05:50:27.886Z,19.40
2018-06-05T05:52:55.494Z,19.40
2018-06-05T05:55:23.831Z,19.30
2018-06-05T05:57:51.387Z,19.30
2018-06-05T06:00:18.992Z,19.30
2018-06-05T06:02:47.334Z,19.30
2018-06-05T06:05:14.907Z,19.30
2018-06-05T06:07:43.186Z,19.30
2018-06-05T06:10:10.753Z,19.30
2018-06-05T06:12:38.362Z,19.50
2018-06-05T06:15:05.939Z,19.50
2018-06-05T06:17:33.500Z,19.50
2018-06-05T06:20:01.073Z,19.50
2018-06-05T06:22:28.677Z,19.60
2018-06-05T06:24:56.281Z,19.60
2018-06-05T06:27:23.849Z,19.70
2018-06-05T06:29:51.456Z,19.70
2018-06-05T06:32:20.026Z,19.80
2018-06-05T06:34:47.613Z,19.80
2018-06-05T06:37:15.220Z,19.90
2018-06-05T06:39:42.790Z,19.90
2018-06-05T06:42:10.359Z,20.00
2018-06-05T06:44:37.958Z,20.10
2018-06-05T06:47:06.329Z,20.10
2018-06-05T06:49:33.864Z,20.10
2018-06-05T06:52:02.048Z,20.20
2018-06-05T06:54:29.658Z,20.30
2018-06-05T06:56:57.177Z,20.30
2018-06-05T06:59:24.812Z,20.40
2018-06-05T07:01:52.373Z,20.50
2018-06-05T07:04:19.939Z,20.60
2018-06-05T07:06:48.947Z,20.60
2018-06-05T07:09:16.513Z,20.60
2018-06-05T07:11:44.079Z,20.70
2018-06-05T07:14:11.732Z,20.70
2018-06-05T07:16:39.311Z,20.80
2018-06-05T07:19:06.896Z,20.80
2018-06-05T07:21:35.343Z,21.00
2018-06-05T07:24:02.941Z,21.00
2018-06-05T07:26:30.490Z,21.10
2018-06-05T07:28:58.876Z,21.20
2018-06-05T07:31:27.243Z,21.30
2018-06-05T07:33:54.781Z,21.20
2018-06-05T07:36:22.397Z,21.30
2018-06-05T07:38:49.969Z,21.30
2018-06-05T07:41:17.536Z,21.40
2018-06-05T07:43:45.162Z,21.40
2018-06-05T07:46:13.532Z,21.50
2018-06-05T07:48:41.071Z,21.50
2018-06-05T07:51:08.719Z,21.60
2018-06-05T07:53:36.294Z,21.60
2018-06-05T07:56:03.867Z,21.80
2018-06-05T07:58:31.920Z,21.80
2018-06-05T08:00:59.495Z,21.90
2018-06-05T08:03:27.077Z,22.10
2018-06-05T08:05:55.472Z,22.10
2018-06-05T08:08:23.040Z,22.10
2018-06-05T08:10:50.605Z,22.20
2018-06-05T08:13:18.688Z,22.30
2018-06-05T08:15:46.261Z,22.30
2018-06-05T08:18:14.143Z,22.40
2018-06-05T08:20:42.634Z,22.40
2018-06-05T08:23:10.203Z,22.40
2018-06-05T08:25:37.779Z,22.50
2018-06-05T08:28:05.408Z,22.60
2018-06-05T08:30:32.975Z,22.70
2018-06-05T08:33:00.574Z,22.70
2018-06-05T08:35:29.443Z,22.70
2018-06-05T08:37:57.079Z,22.70
2018-06-05T08:40:24.571Z,22.70
2018-06-05T08:42:52.206Z,22.90
2018-06-05T08:45:19.772Z,22.90
2018-06-05T08:47:47.339Z,23.10
2018-06-05T08:50:15.510Z,23.10
2018-06-05T08:52:43.087Z,23.10
2018-06-05T08:55:10.657Z,23.20
2018-06-05T08:57:39.613Z,23.20
2018-06-05T09:00:07.175Z,23.20
2018-06-05T09:02:34.773Z,23.30
2018-06-05T09:05:02.753Z,23.30
2018-06-05T09:07:30.325Z,23.40
2018-06-05T09:09:57.895Z,23.60
2018-06-05T09:12:26.305Z,23.60
2018-06-05T09:14:53.877Z,23.60
2018-06-05T09:17:21.453Z,23.70
2018-06-05T09:19:49.074Z,23.70
2018-06-05T09:22:16.644Z,23.70
2018-06-05T09:24:44.210Z,23.70
2018-06-05T09:27:11.854Z,23.70
2018-06-05T09:29:39.427Z,23.70
2018-06-05T09:32:06.991Z,23.80
2018-06-05T09:34:34.621Z,23.80
2018-06-05T09:37:02.178Z,23.90
2018-06-05T09:39:30.514Z,24.00
2018-06-05T09:41:58.492Z,24.00
2018-06-05T09:44:26.058Z,24.10
2018-06-05T09:46:53.828Z,24.20
2018-06-05T09:49:22.603Z,24.30
2018-06-05T09:51:50.181Z,24.30
2018-06-05T09:54:17.742Z,24.30
2018-06-05T09:56:45.376Z,24.40
2018-06-05T09:59:12.988Z,24.40
2018-06-05T10:01:40.546Z,24.60
2018-06-05T10:04:08.931Z,24.70
2018-06-05T10:06:37.266Z,24.80
2018-06-05T10:09:04.842Z,24.80
2018-06-05T10:11:32.465Z,24.90
2018-06-05T10:14:00.042Z,24.90
2018-06-05T10:16:27.607Z,25.00
2018-06-05T10:18:55.217Z,25.00
2018-06-05T10:21:23.542Z,25.10
2018-06-05T10:23:51.122Z,25.10
2018-06-05T10:26:18.728Z,25.20
2018-06-05T10:28:47.058Z,25.30
2018-06-05T10:31:14.632Z,25.30
2018-06-05T10:33:42.253Z,25.40
2018-06-05T10:36:09.822Z,25.50
2018-06-05T10:38:37.387Z,25.60
2018-06-05T10:41:05.058Z,25.60
2018-06-05T10:43:32.586Z,25.70
2018-06-05T10:46:00.918Z,25.80
2018-06-05T10:48:28.529Z,25.70
2018-06-05T10:50:56.090Z,25.80
2018-06-05T10:53:23.653Z,25.80
2018-06-05T10:55:51.272Z,25.80
2018-06-05T10:58:18.841Z,25.90
2018-06-05T11:00:46.405Z,25.90
2018-06-05T11:03:14.009Z,25.90
2018-06-05T11:05:41.565Z,25.90
2018-06-05T11:08:09.133Z,25.90
2018-06-05T11:10:36.746Z,25.90
2018-06-05T11:13:04.309Z,26.00
2018-06-05T11:15:31.871Z,25.90
2018-06-05T11:17:59.482Z,26.00
2018-06-05T11:20:27.038Z,26.00
2018-06-05T11:22:54.604Z,26.10
2018-06-05T11:25:22.210Z,26.10
2018-06-05T11:27:50.027Z,26.20
2018-06-05T11:30:17.606Z,26.30
2018-06-05T11:32:45.249Z,26.50
2018-06-05T11:35:13.547Z,26.60
2018-06-05T11:37:41.104Z,26.50
2018-06-05T11:40:08.702Z,26.60
2018-06-05T11:42:36.261Z,26.70
2018-06-05T11:45:03.824Z,26.80
2018-06-05T11:47:32.413Z,27.10
2018-06-05T11:49:59.980Z,27.30
2018-06-05T11:52:27.538Z,27.60
2018-06-05T11:54:55.160Z,27.70
2018-06-05T11:57:22.724Z,27.80
2018-06-05T11:59:50.292Z,27.90
2018-06-05T12:02:17.888Z,27.90
2018-06-05T12:04:45.454Z,28.00
2018-06-05T12:07:13.780Z,28.20
2018-06-05T12:09:41.389Z,28.20
2018-06-05T12:12:09.051Z,28.30
2018-06-05T12:14:36.604Z,28.30
2018-06-05T12:17:04.750Z,28.50
2018-06-05T12:19:32.310Z,28.60
2018-06-05T12:21:59.868Z,28.70
2018-06-05T12:24:27.469Z,28.80
2018-06-05T12:26:55.025Z,28.70
2018-06-05T12:29:22.579Z,28.70
2018-06-05T12:31:50.630Z,28.70
2018-06-05T12:34:18.180Z,28.80
2018-06-05T12:36:45.753Z,28.90
2018-06-05T12:39:13.374Z,29.00
2018-06-05T12:41:40.940Z,29.00
2018-06-05T12:44:08.487Z,29.10
2018-06-05T12:46:36.087Z,29.20
2018-06-05T12:49:03.652Z,29.40
2018-06-05T12:51:31.249Z,29.40
2018-06-05T12:54:00.124Z,29.50
2018-06-05T12:56:27.673Z,29.60
2018-06-05T12:58:55.232Z,29.70
2018-06-05T13:01:22.838Z,30.00
2018-06-05T13:03:51.165Z,30.10
2018-06-05T13:06:18.715Z,30.00
2018-06-05T13:08:46.328Z,30.00
2018-06-05T13:11:13.876Z,30.00
2018-06-05T13:13:41.437Z,29.80
2018-06-05T13:16:17.493Z,29.70
2018-06-05T13:18:45.098Z,29.40
2018-06-05T13:21:12.612Z,29.40
2018-06-05T13:23:40.220Z,29.20
2018-06-05T13:26:07.821Z,29.00
2018-06-05T13:28:35.335Z,28.90
2018-06-05T13:31:03.223Z,28.90
2018-06-05T13:33:30.775Z,28.90
2018-06-05T13:35:58.683Z,28.90
2018-06-05T13:38:26.289Z,28.90
2018-06-05T13:40:54.622Z,28.80
2018-06-05T13:43:22.188Z,28.80
2018-06-05T13:45:49.799Z,28.70
2018-06-05T13:48:18.119Z,28.70
2018-06-05T13:50:45.679Z,28.70
2018-06-05T13:53:13.289Z,28.80
2018-06-05T13:55:41.616Z,28.80
2018-06-05T13:58:09.186Z,28.80
2018-06-05T14:00:36.787Z,28.70
2018-06-05T14:03:04.353Z,28.70
2018-06-05T14:05:32.678Z,28.80
2018-06-05T14:08:00.291Z,28.70
2018-06-05T14:10:28.626Z,28.90
2018-06-05T14:12:56.184Z,28.90
2018-06-05T14:15:23.823Z,28.90
2018-06-05T14:17:51.385Z,29.00
2018-06-05T14:20:18.949Z,29.00
2018-06-05T14:22:46.577Z,29.30
2018-06-05T14:25:14.140Z,29.40
2018-06-05T14:27:42.466Z,29.60
2018-06-05T14:30:10.101Z,29.60
2018-06-05T14:32:37.651Z,29.70
2018-06-05T14:35:05.210Z,29.80
2018-06-05T14:37:33.579Z,29.90
2018-06-05T14:40:01.941Z,30.00
2018-06-05T14:42:29.458Z,30.00
2018-06-05T14:44:57.678Z,30.00
2018-06-05T14:47:25.234Z,30.00
2018-06-05T14:49:52.776Z,30.10
2018-06-05T14:52:22.903Z,30.10
2018-06-05T14:54:50.523Z,30.20
2018-06-05T14:57:18.046Z,30.30
2018-06-05T14:59:46.506Z,30.40
2018-06-05T15:02:14.086Z,30.50
2018-06-05T15:04:41.626Z,30.60
2018-06-05T15:07:09.237Z,30.60
2018-06-05T15:09:37.552Z,30.40
2018-06-05T15:12:05.103Z,30.30
2018-06-05T15:14:33.507Z,30.30
2018-06-05T15:17:01.073Z,30.30
2018-06-05T15:19:28.640Z,30.30
2018-06-05T15:21:56.301Z,30.30
2018-06-05T15:24:23.872Z,30.10
2018-06-05T15:26:51.443Z,30.00
2018-06-05T15:29:19.086Z,29.90
2018-06-05T15:31:46.637Z,29.90
2018-06-05T15:34:14.247Z,29.80
2018-06-05T15:36:41.804Z,29.80
2018-06-05T15:39:10.129Z,30.10
2018-06-05T15:41:37.689Z,30.00
2018-06-05T15:44:06.307Z,30.20
2018-06-05T15:46:33.872Z,30.30
2018-06-05T15:49:01.449Z,30.30
2018-06-05T15:51:29.848Z,30.60
2018-06-05T15:53:57.404Z,30.60
2018-06-05T15:56:24.958Z,30.80
2018-06-05T15:58:53.332Z,31.10
2018-06-05T16:01:20.888Z,31.10
2018-06-05T16:03:48.452Z,31.20
2018-06-05T16:06:16.852Z,31.00
2018-06-05T16:08:44.442Z,31.00
2018-06-05T16:11:11.973Z,31.10
2018-06-05T16:13:41.320Z,31.20
2018-06-05T16:16:08.890Z,31.20
2018-06-05T16:18:36.446Z,31.20
2018-06-05T16:21:04.403Z,31.30
2018-06-05T16:23:32.099Z,31.30
2018-06-05T16:25:59.591Z,31.30
2018-06-05T16:28:27.613Z,31.40
2018-06-05T16:30:55.178Z,31.60
2018-06-05T16:33:22.759Z,31.70
2018-06-05T16:35:50.376Z,31.90
2018-06-05T16:38:17.943Z,31.80
2018-06-05T16:40:45.497Z,31.80
2018-06-05T16:43:13.096Z,31.70
2018-06-05T16:45:40.891Z,31.40
2018-06-05T16:48:09.224Z,30.90
2018-06-05T16:50:37.664Z,30.80
2018-06-05T16:53:05.221Z,30.70
2018-06-05T16:55:32.778Z,30.60
2018-06-05T16:58:00.899Z,30.50
2018-06-05T17:00:28.469Z,30.40
2018-06-05T17:02:56.019Z,30.40
2018-06-05T17:05:24.769Z,30.40
2018-06-05T17:07:52.320Z,30.40
2018-06-05T17:10:19.904Z,30.40
2018-06-05T17:12:48.067Z,30.40
2018-06-05T17:15:15.572Z,30.40
2018-06-05T17:17:43.157Z,30.40
2018-06-05T17:20:10.785Z,30.40
2018-06-05T17:22:38.341Z,30.50
2018-06-05T17:25:05.896Z,30.50
2018-06-05T17:27:33.565Z,30.50
2018-06-05T17:30:01.058Z,30.50
2018-06-05T17:32:28.616Z,30.40
2018-06-05T17:34:56.992Z,30.30
2018-06-05T17:37:24.565Z,30.30
2018-06-05T17:39:52.118Z,30.30
2018-06-05T17:42:19.733Z,30.30
2018-06-05T17:44:47.293Z,30.00
2018-06-05T17:47:14.849Z,29.90
2018-06-05T17:49:42.928Z,29.60
2018-06-05T17:52:10.492Z,29.30
2018-06-05T17:54:38.056Z,29.00
2018-06-05T17:57:05.664Z,28.80
2018-06-05T17:59:33.214Z,28.60
2018-06-05T18:02:00.798Z,28.40
2018-06-05T18:04:28.933Z,28.30
2018-06-05T18:06:56.489Z,28.20
2018-06-05T18:09:24.070Z,28.10
2018-06-05T18:11:51.739Z,27.90
2018-06-05T18:14:19.308Z,27.90
2018-06-05T18:16:47.091Z,27.70
2018-06-05T18:19:16.035Z,27.60
2018-06-05T18:21:43.591Z,27.60
2018-06-05T18:24:11.154Z,27.50
2018-06-05T18:26:38.789Z,27.40
2018-06-05T18:29:06.333Z,27.40
2018-06-05T18:31:33.898Z,27.30
2018-06-05T18:34:02.265Z,27.10
2018-06-05T18:36:29.823Z,27.10
2018-06-05T18:38:57.381Z,27.00
2018-06-05T18:41:24.990Z,26.90
2018-06-05T18:43:52.599Z,26.70
2018-06-05T18:46:20.155Z,26.60
2018-06-05T18:48:48.082Z,26.40
2018-06-05T18:53:55.383Z,26.10
2018-06-05T18:56:22.948Z,25.90
2018-06-05T18:58:50.518Z,25.70
2018-06-05T19:01:18.959Z,25.60
2018-06-05T19:03:47.285Z,25.40
2018-06-05T19:06:14.850Z,25.40
2018-06-05T19:08:42.513Z,25.30
2018-06-05T19:11:10.088Z,25.10
2018-06-05T19:13:37.672Z,25.00
2018-06-05T19:16:06.497Z,24.80
2018-06-05T19:18:34.064Z,24.80
2018-06-05T19:21:01.636Z,24.70
2018-06-05T19:23:29.726Z,24.60
2018-06-05T19:25:57.293Z,24.50
2018-06-05T19:28:24.851Z,24.40
2018-06-05T19:30:52.453Z,24.30
2018-06-05T19:33:20.022Z,24.10
2018-06-05T19:35:48.348Z,23.90
2018-06-05T19:38:16.527Z,23.90
2018-06-05T19:40:44.110Z,23.80
2018-06-05T19:43:11.671Z,23.80
2018-06-05T19:45:39.276Z,23.70
2018-06-05T19:48:06.843Z,23.70
2018-06-05T19:50:34.406Z,23.60
2018-06-05T19:53:02.016Z,23.60
2018-06-05T19:55:29.580Z,23.60
2018-06-05T19:57:58.326Z,23.60
2018-06-05T20:00:26.006Z,23.60
2018-06-05T20:02:53.595Z,23.60
2018-06-05T20:05:21.168Z,23.50
2018-06-05T20:07:48.776Z,23.50
2018-06-05T20:10:16.339Z,23.30
2018-06-05T20:12:43.896Z,23.20
2018-06-05T20:15:11.541Z,23.10
2018-06-05T20:17:39.105Z,23.00
2018-06-05T20:20:06.702Z,22.90
2018-06-05T20:22:34.308Z,22.90
2018-06-05T20:25:03.700Z,22.80
2018-06-05T20:27:32.035Z,22.90
2018-06-05T20:30:00.873Z,22.90
2018-06-05T20:32:29.222Z,22.80
2018-06-05T20:34:56.780Z,22.70
2018-06-05T20:37:24.389Z,22.80
2018-06-05T20:39:51.966Z,22.70
2018-06-05T20:42:19.528Z,22.60
2018-06-05T20:44:47.139Z,22.50
2018-06-05T20:47:14.732Z,22.40
2018-06-05T20:49:42.290Z,22.20
2018-06-05T20:52:11.663Z,22.30
2018-06-05T20:54:37.990Z,22.20
2018-06-05T20:57:05.548Z,22.10
2018-06-05T20:59:33.159Z,21.90
2018-06-05T21:02:00.724Z,21.80
2018-06-05T21:04:28.296Z,21.60
2018-06-05T21:06:55.927Z,21.50
2018-06-05T21:09:24.255Z,21.30
2018-06-05T21:11:51.824Z,21.20
2018-06-05T21:14:19.467Z,21.20
2018-06-05T21:16:47.035Z,21.10
2018-06-05T21:19:14.596Z,21.00
2018-06-05T21:21:42.255Z,20.90
2018-06-05T21:24:09.881Z,20.80
2018-06-05T21:26:37.397Z,20.70
2018-06-05T21:29:05.001Z,20.60
2018-06-05T21:31:33.329Z,20.40
2018-06-05T21:34:00.886Z,20.40
2018-06-05T21:36:28.528Z,20.30
2018-06-05T21:38:56.072Z,20.30
2018-06-05T21:41:24.405Z,20.10
2018-06-05T21:43:52.043Z,20.10
2018-06-05T21:46:19.599Z,20.00
2018-06-05T21:48:47.154Z,20.00
2018-06-05T21:51:14.766Z,19.90
2018-06-05T21:53:42.322Z,19.80
2018-06-05T21:56:09.890Z,19.80
2018-06-05T21:58:37.494Z,19.90
2018-06-05T22:01:05.058Z,19.80
2018-06-05T22:03:32.679Z,19.90
2018-06-05T22:06:00.279Z,19.80
2018-06-05T22:08:27.842Z,19.70
2018-06-05T22:10:55.410Z,19.60
2018-06-05T22:13:23.003Z,19.60
2018-06-05T22:15:50.558Z,19.60
2018-06-05T22:18:18.123Z,19.50
2018-06-05T22:20:45.735Z,19.50
2018-06-05T22:23:14.075Z,19.30
2018-06-05T22:25:41.638Z,19.20
2018-06-05T22:28:09.266Z,19.20
2018-06-05T22:30:36.828Z,19.30
2018-06-05T22:33:04.390Z,19.40
2018-06-05T22:35:31.989Z,19.40
2018-06-05T22:37:59.549Z,19.30
2018-06-05T22:40:27.114Z,19.20
2018-06-05T22:42:54.702Z,19.20
2018-06-05T22:45:23.038Z,19.20
2018-06-05T22:47:50.603Z,19.20
2018-06-05T22:50:18.659Z,19.10
2018-06-05T22:52:46.218Z,19.20
2018-06-05T22:55:13.782Z,19.10
2018-06-05T22:57:41.388Z,19.10
2018-06-05T23:00:09.729Z,18.90
2018-06-05T23:02:37.302Z,18.90
2018-06-05T23:05:04.900Z,18.90
2018-06-05T23:07:33.238Z,18.80
2018-06-05T23:10:00.807Z,18.80
2018-06-05T23:12:28.771Z,18.70
2018-06-05T23:14:56.345Z,18.70
2018-06-05T23:17:23.898Z,18.60
2018-06-05T23:19:51.491Z,18.60
2018-06-05T23:22:19.826Z,18.60
2018-06-05T23:24:47.385Z,18.50
2018-06-05T23:27:14.993Z,18.50
2018-06-05T23:29:43.336Z,18.50
2018-06-05T23:32:10.908Z,18.50
2018-06-05T23:34:39.431Z,18.40
2018-06-05T23:37:07.052Z,18.40
2018-06-05T23:39:34.619Z,18.40
2018-06-05T23:42:02.216Z,18.40
2018-06-05T23:44:29.776Z,18.30
2018-06-05T23:46:57.353Z,18.30
2018-06-05T23:49:24.967Z,18.30
2018-06-05T23:51:52.520Z,18.30
2018-06-05T23:54:20.116Z,18.30
2018-06-05T23:56:48.130Z,18.20
2018-06-05T23:59:15.694Z,18.20
